Time;durP1;ratioP1;P1;durP2;ratioP2;P2;SDS_P1;SDS_P2;PMS_P1;PMS_P2;Temp;Humidity;BMP_temperature;BMP_pressure;BME280_temperature;BME280_humidity;BME280_pressure;Samples;Min_cycle;Max_cycle;Signal;HPM_P1;HPM_P2
2023/07/20 00:00:24;;;;;;;15.07;3.70;;;;;;;-143.21;58.15;70868.72;5110553;28;20204;-77
2023/07/20 00:02:51;;;;;;;10.18;3.65;;;;;;;-143.21;57.96;70856.81;5110085;28;20253;-76
2023/07/20 00:05:21;;;;;;;14.05;3.65;;;;;;;-143.21;58.18;70852.84;5110524;28;20257;-75
2023/07/20 00:07:51;;;;;;;11.52;3.22;;;;;;;-143.21;57.40;70846.91;5110711;28;20299;-75
2023/07/20 00:10:18;;;;;;;5.72;2.90;;;;;;;-143.21;57.69;70833.03;5110983;28;20208;-76
2023/07/20 00:12:47;;;;;;;10.45;3.28;;;;;;;-143.21;58.36;70833.03;5110850;28;20576;-76
2023/07/20 00:15:15;;;;;;;11.63;3.00;;;;;;;-143.21;57.48;70827.06;5110573;28;20227;-76
2023/07/20 00:17:42;;;;;;;8.02;3.08;;;;;;;-143.21;56.25;70821.13;5110551;28;20188;-76
2023/07/20 00:20:10;;;;;;;8.40;3.03;;;;;;;-143.21;56.77;70817.16;5109961;28;20219;-77
2023/07/20 00:22:37;;;;;;;9.30;3.05;;;;;;;-143.21;55.79;70809.25;5110538;28;20200;-77
2023/07/20 00:25:04;;;;;;;10.27;3.35;;;;;;;-143.21;55.79;70795.38;5110644;28;20671;-77
2023/07/20 00:27:31;;;;;;;12.02;3.40;;;;;;;-143.21;55.56;70789.41;5114102;28;20211;-79
2023/07/20 00:29:58;;;;;;;12.15;3.33;;;;;;;-143.21;56.03;70779.50;5113884;28;20686;-77
2023/07/20 00:32:26;;;;;;;9.75;3.42;;;;;;;-143.21;55.46;70785.44;5114622;28;20208;-77
2023/07/20 00:34:52;;;;;;;11.73;3.40;;;;;;;-143.21;55.23;70775.53;5114752;28;20200;-77
2023/07/20 00:37:19;;;;;;;11.43;3.72;;;;;;;-143.21;55.36;70769.59;5114806;28;20192;-79
2023/07/20 00:39:46;;;;;;;8.25;3.50;;;;;;;-143.21;55.11;70757.69;5114573;28;20192;-74
2023/07/20 00:42:13;;;;;;;12.95;4.20;;;;;;;-143.21;55.64;70759.69;5114281;28;20292;-76
2023/07/20 00:44:40;;;;;;;11.85;3.50;;;;;;;-143.21;56.32;70753.72;5114150;28;20196;-78
2023/07/20 00:47:07;;;;;;;12.82;3.33;;;;;;;-143.21;54.96;70749.78;5114463;28;20215;-76
2023/07/20 00:49:35;;;;;;;9.45;3.05;;;;;;;-143.21;55.17;70749.78;5114267;28;20643;-76
2023/07/20 00:52:04;;;;;;;7.65;3.40;;;;;;;-143.21;55.17;70755.72;5113863;28;20255;-76
2023/07/20 00:54:31;;;;;;;8.70;3.25;;;;;;;-143.21;55.26;70761.66;5114153;28;20204;-76
2023/07/20 00:56:58;;;;;;;15.13;3.63;;;;;;;-143.21;55.35;70769.59;5114382;27;20204;-76
2023/07/20 00:59:26;;;;;;;10.30;3.60;;;;;;;-143.21;55.77;70773.56;5114422;28;20192;-76
2023/07/20 01:01:53;;;;;;;13.80;4.35;;;;;;;-143.21;55.47;70773.56;5113968;28;20200;-76
2023/07/20 01:04:21;;;;;;;10.40;3.70;;;;;;;-143.21;55.32;70777.53;5113926;28;20703;-76
2023/07/20 01:06:58;;;;;;;10.98;4.07;;;;;;;-143.21;55.69;70793.38;5113773;28;20678;-76
2023/07/20 01:09:32;;;;;;;10.35;3.97;;;;;;;-143.21;56.12;70797.34;5113811;28;20227;-76
2023/07/20 01:12:06;;;;;;;12.43;3.60;;;;;;;-143.21;56.56;70809.25;5113538;28;20561;-76
2023/07/20 01:14:33;;;;;;;8.65;3.70;;;;;;;-143.21;57.05;70817.16;5093250;28;20181;-77
2023/07/20 01:17:00;;;;;;;10.60;3.22;;;;;;;-143.21;57.36;70827.06;5093126;28;20193;-76
2023/07/20 01:19:27;;;;;;;11.73;3.55;;;;;;;-143.21;57.50;70837.00;5105336;28;20196;-76
2023/07/20 01:22:00;;;;;;;7.50;3.20;;;;;;;-143.21;57.94;70842.94;5113812;28;20188;-76
2023/07/20 01:24:58;;;;;;;9.00;3.30;;;;;;;-143.21;58.17;70860.78;5113673;28;20257;-76
2023/07/20 01:28:04;;;;;;;11.00;3.55;;;;;;;-143.21;58.69;70862.75;5126538;27;20231;-77
2023/07/20 01:30:48;;;;;;;8.40;3.08;;;;;;;-143.21;58.77;70856.81;5134167;27;20571;-76
2023/07/20 01:33:18;;;;;;;14.30;3.50;;;;;;;-143.21;58.58;70868.72;5134391;27;20224;-78
2023/07/20 01:35:47;;;;;;;12.25;3.28;;;;;;;-143.21;58.89;70878.63;5134108;27;20583;-78
2023/07/20 01:38:15;;;;;;;9.45;3.05;;;;;;;-143.21;58.98;70878.63;5133737;27;20198;-78
2023/07/20 01:40:42;;;;;;;11.25;3.55;;;;;;;-143.21;58.85;70880.59;5133163;27;20184;-78
2023/07/20 01:43:09;;;;;;;8.90;3.15;;;;;;;-143.21;58.98;70888.53;5121081;27;20200;-77
2023/07/20 01:45:35;;;;;;;9.20;2.80;;;;;;;-143.21;59.23;70884.56;5113158;28;20504;-78
2023/07/20 01:48:03;;;;;;;10.90;3.67;;;;;;;-143.21;59.21;70888.53;5113182;28;20196;-77
2023/07/20 01:50:32;;;;;;;12.65;3.15;;;;;;;-143.21;59.28;70892.50;5112862;28;20228;-76
2023/07/20 01:52:59;;;;;;;14.90;3.45;;;;;;;-143.21;59.37;70884.56;5113003;28;20622;-77
2023/07/20 01:55:26;;;;;;;8.82;3.08;;;;;;;-143.21;59.33;70892.50;5113151;28;20694;-77
2023/07/20 01:57:53;;;;;;;15.20;3.40;;;;;;;-143.21;58.90;70894.47;5113157;28;20203;-77
2023/07/20 02:00:23;;;;;;;10.10;3.13;;;;;;;-143.21;59.01;70888.53;5113055;28;20253;-77
2023/07/20 02:02:51;;;;;;;11.80;3.50;;;;;;;-143.21;59.02;70896.47;5112736;28;20195;-77
2023/07/20 02:05:17;;;;;;;11.07;3.63;;;;;;;-143.21;59.53;70904.38;5112789;28;20192;-77
2023/07/20 02:07:46;;;;;;;10.93;3.10;;;;;;;-143.21;59.79;70918.25;5112561;28;20209;-77
2023/07/20 02:10:12;;;;;;;7.28;3.53;;;;;;;-143.21;59.64;70916.28;5112843;28;20224;-77
2023/07/20 02:12:39;;;;;;;13.40;3.47;;;;;;;-143.21;60.08;70914.31;5112738;28;20196;-77
2023/07/20 02:15:08;;;;;;;10.00;3.83;;;;;;;-143.21;60.29;70912.31;5112960;28;20266;-79
2023/07/20 02:17:35;;;;;;;12.23;3.00;;;;;;;-143.21;60.15;70918.25;5112961;28;20291;-79
2023/07/20 02:20:01;;;;;;;8.18;3.40;;;;;;;-143.21;60.22;70922.22;5112848;28;20200;-79
2023/07/20 02:22:28;;;;;;;13.63;3.78;;;;;;;-143.21;60.69;70928.19;5111987;28;20204;-79
2023/07/20 02:24:56;;;;;;;8.82;3.30;;;;;;;-143.21;60.73;70934.13;5112278;28;20852;-78
2023/07/20 02:27:23;;;;;;;12.57;3.63;;;;;;;-143.21;60.57;70930.16;5126149;27;20203;-79
2023/07/20 02:29:50;;;;;;;13.32;3.13;;;;;;;-143.21;60.84;70934.13;5116678;27;20219;-80
2023/07/20 02:32:17;;;;;;;14.07;3.30;;;;;;;-143.21;60.91;70936.09;5112099;28;20674;-79
2023/07/20 02:34:44;;;;;;;10.15;3.28;;;;;;;-143.21;61.42;70940.06;5111624;28;20880;-79
2023/07/20 02:37:12;;;;;;;10.52;3.50;;;;;;;-143.21;61.12;70944.03;5111953;28;20658;-79
2023/07/20 02:39:39;;;;;;;14.98;3.80;;;;;;;-143.21;61.33;70951.97;5112610;28;20231;-79
2023/07/20 02:42:08;;;;;;;15.18;3.67;;;;;;;-143.21;61.76;70961.88;5112340;28;20215;-79
2023/07/20 02:44:34;;;;;;;10.07;3.40;;;;;;;-143.21;61.39;70967.81;5112490;28;20188;-79
2023/07/20 02:47:01;;;;;;;17.80;3.70;;;;;;;-143.21;61.67;70979.72;5112374;28;20200;-79
2023/07/20 02:49:28;;;;;;;13.13;3.75;;;;;;;-143.21;62.63;70991.63;5105478;28;20220;-79
2023/07/20 02:51:55;;;;;;;7.68;3.30;;;;;;;-143.21;62.66;71011.44;5101049;28;20227;-79
2023/07/20 02:54:22;;;;;;;15.35;3.55;;;;;;;-143.21;62.98;71015.41;5110754;28;20553;-79
2023/07/20 02:56:49;;;;;;;9.32;3.30;;;;;;;-143.21;63.62;71029.28;5119673;27;20199;-79
2023/07/20 02:59:18;;;;;;;11.65;3.60;;;;;;;-143.21;64.22;71029.28;5131134;27;20187;-79
2023/07/20 03:01:45;;;;;;;15.52;4.18;;;;;;;-143.21;64.26;71029.28;5110272;28;20223;-79
2023/07/20 03:04:11;;;;;;;14.15;4.47;;;;;;;-143.21;64.39;71039.19;5110510;28;20203;-79
2023/07/20 03:06:38;;;;;;;15.07;3.75;;;;;;;-143.21;64.64;71031.25;5109679;28;20200;-79
2023/07/20 03:09:06;;;;;;;11.52;3.97;;;;;;;-143.21;64.88;71033.25;5109274;28;20579;-79
2023/07/20 03:11:34;;;;;;;12.38;4.50;;;;;;;-143.21;64.28;71037.22;5111232;28;20291;-79
2023/07/20 03:14:01;;;;;;;18.20;4.38;;;;;;;-143.21;64.67;71039.19;5110969;28;20275;-77
2023/07/20 03:16:32;;;;;;;14.93;4.38;;;;;;;-143.21;64.88;71029.28;5109630;28;20199;-77
2023/07/20 03:18:59;;;;;;;16.23;4.43;;;;;;;-143.21;65.01;71027.28;5109189;28;20864;-77
2023/07/20 03:21:26;;;;;;;11.27;4.20;;;;;;;-143.21;63.73;71029.28;5109800;28;20200;-77
2023/07/20 03:24:04;;;;;;;16.08;4.53;;;;;;;-143.21;63.60;71023.34;5109802;28;20196;-77
2023/07/20 03:26:30;;;;;;;16.13;4.45;;;;;;;-143.21;63.76;71033.25;5112130;27;20653;-76
2023/07/20 03:28:57;;;;;;;15.85;4.88;;;;;;;-143.21;64.43;71043.16;5109342;28;20212;-76
2023/07/20 03:31:24;;;;;;;17.00;4.45;;;;;;;-143.21;65.15;71055.06;5109450;28;20220;-78
2023/07/20 03:33:53;;;;;;;15.23;4.43;;;;;;;-143.21;64.89;71057.03;5109338;28;20202;-77
2023/07/20 03:36:20;;;;;;;14.40;3.97;;;;;;;-143.21;64.70;71049.09;5110385;28;20319;-78
2023/07/20 03:38:47;;;;;;;13.25;4.05;;;;;;;-143.21;64.54;71062.97;5109530;28;20214;-76
2023/07/20 03:41:15;;;;;;;16.13;4.55;;;;;;;-143.21;64.88;71061.00;5109642;28;20281;-76
2023/07/20 03:43:42;;;;;;;19.48;5.28;;;;;;;-143.21;65.47;71072.88;5108889;28;20678;-76
2023/07/20 03:46:09;;;;;;;18.58;4.88;;;;;;;-143.21;65.98;71078.84;5109037;28;20211;-77
2023/07/20 03:48:36;;;;;;;17.40;4.93;;;;;;;-143.21;66.34;71076.84;5108111;28;20207;-77
2023/07/20 03:51:04;;;;;;;19.00;5.07;;;;;;;-143.21;65.61;71076.84;5108087;28;20232;-76
2023/07/20 03:53:31;;;;;;;16.55;5.10;;;;;;;-143.21;66.08;71076.84;5108851;28;20200;-76
2023/07/20 03:55:58;;;;;;;16.13;4.65;;;;;;;-143.21;65.66;71084.78;5109693;28;20272;-76
2023/07/20 03:58:25;;;;;;;14.40;4.90;;;;;;;-143.21;66.35;71090.72;5129353;28;20214;-76
2023/07/20 04:00:53;;;;;;;13.93;4.95;;;;;;;-143.21;66.53;71092.72;5126844;28;20199;-76
2023/07/20 04:03:20;;;;;;;17.08;5.40;;;;;;;-143.21;66.09;71092.72;5109714;28;20195;-76
2023/07/20 04:05:47;;;;;;;24.70;6.25;;;;;;;-143.21;65.95;71084.78;5112609;28;20299;-78
2023/07/20 04:08:15;;;;;;;12.75;6.03;;;;;;;-143.21;66.26;71084.78;5110037;27;20227;-77
2023/07/20 04:10:45;;;;;;;20.63;5.93;;;;;;;-143.21;66.18;71084.78;5111339;28;20220;-76
2023/07/20 04:13:12;;;;;;;17.02;5.25;;;;;;;-143.21;65.66;71076.84;5118892;27;20665;-76
2023/07/20 04:15:39;;;;;;;21.23;6.18;;;;;;;-143.21;65.98;71062.97;5132416;27;20203;-77
2023/07/20 04:18:06;;;;;;;16.73;5.55;;;;;;;-143.21;65.56;71037.22;5118027;27;20204;-79
2023/07/20 04:20:32;;;;;;;16.42;4.82;;;;;;;-143.21;64.43;71005.50;5112273;28;20200;-80
2023/07/20 04:23:02;;;;;;;12.55;4.88;;;;;;;-143.21;63.51;70991.63;5111804;28;20935;-77
2023/07/20 04:25:38;;;;;;;13.93;4.97;;;;;;;-143.21;63.17;70985.66;5112233;28;20203;-78
2023/07/20 04:28:08;;;;;;;17.63;4.72;;;;;;;-143.21;63.05;70985.66;5132497;27;20225;-79
2023/07/20 04:30:36;;;;;;;13.77;4.43;;;;;;;-143.21;63.36;70999.53;5133009;27;20223;-77
2023/07/20 04:33:04;;;;;;;12.77;4.53;;;;;;;-143.21;64.29;70997.56;5132798;27;20183;-75
2023/07/20 04:35:49;;;;;;;17.73;4.68;;;;;;;-143.21;64.59;71015.41;5119295;27;20314;-75
2023/07/20 04:38:17;;;;;;;17.73;5.43;;;;;;;-143.21;64.41;71003.50;5111484;28;20192;-75
2023/07/20 04:40:45;;;;;;;12.82;4.65;;;;;;;-143.21;64.33;71001.53;5111263;28;20200;-76
2023/07/20 04:43:12;;;;;;;13.85;4.78;;;;;;;-143.21;64.77;71001.53;5111291;28;20200;-76
2023/07/20 04:45:39;;;;;;;15.70;5.00;;;;;;;-143.21;64.73;70993.59;5111487;28;20245;-76
2023/07/20 04:48:10;;;;;;;14.77;4.88;;;;;;;-143.21;63.84;70965.84;5111136;27;20284;-76
2023/07/20 04:50:37;;;;;;;13.65;4.93;;;;;;;-143.21;63.28;70936.09;5111201;28;20704;-76
2023/07/20 04:53:04;;;;;;;13.63;4.90;;;;;;;-143.21;62.92;70916.28;5111052;28;20257;-76
2023/07/20 04:55:33;;;;;;;21.40;5.28;;;;;;;-143.21;62.62;70916.28;5111463;28;20727;-78
2023/07/20 04:58:02;;;;;;;9.57;4.43;;;;;;;-143.21;62.37;70914.31;5112569;28;20204;-78
2023/07/20 05:00:29;;;;;;;12.30;4.47;;;;;;;-143.21;61.67;70920.25;5111926;28;20196;-77
2023/07/20 05:02:55;;;;;;;14.40;4.93;;;;;;;-143.21;61.74;70930.16;5110689;28;20666;-78
2023/07/20 05:05:22;;;;;;;14.73;4.50;;;;;;;-143.21;61.94;70940.06;5111115;28;20196;-77
2023/07/20 05:07:49;;;;;;;13.50;4.78;;;;;;;-143.21;62.80;70942.06;5109676;28;20222;-77
2023/07/20 05:10:16;;;;;;;14.60;4.88;;;;;;;-143.21;62.59;70949.97;5111656;28;20242;-77
2023/07/20 05:12:43;;;;;;;11.18;4.35;;;;;;;-143.21;62.78;70946.03;5111434;28;20192;-77
2023/07/20 05:15:11;;;;;;;13.60;4.72;;;;;;;-143.21;62.38;70948.00;5110217;28;20612;-77
2023/07/20 05:17:39;;;;;;;13.00;4.25;;;;;;;-143.21;61.82;70946.03;5111447;28;20208;-78
2023/07/20 05:20:09;;;;;;;13.73;4.90;;;;;;;-143.21;61.28;70932.13;5111323;28;20200;-77
2023/07/20 05:22:39;;;;;;;12.02;4.57;;;;;;;-143.21;60.88;70904.38;5111338;28;20196;-77
2023/07/20 05:25:07;;;;;;;10.43;4.57;;;;;;;-143.21;60.39;70896.47;5110286;28;20200;-78
2023/07/20 05:27:34;;;;;;;11.77;4.30;;;;;;;-143.21;59.52;70906.38;5126097;27;20577;-79
2023/07/20 05:30:01;;;;;;;14.63;4.90;;;;;;;-143.21;59.87;70910.34;5114861;27;20264;-78
2023/07/20 05:32:29;;;;;;;13.98;4.47;;;;;;;-143.21;59.67;70902.41;5110431;28;20224;-79
2023/07/20 05:34:56;;;;;;;13.27;4.68;;;;;;;-143.21;59.81;70904.38;5111230;28;20203;-78
2023/07/20 05:37:23;;;;;;;16.05;5.13;;;;;;;-143.21;60.08;70916.28;5111236;28;20195;-78
2023/07/20 05:39:50;;;;;;;12.63;4.53;;;;;;;-143.21;59.45;70916.28;5109499;28;20207;-77
2023/07/20 05:42:17;;;;;;;17.30;4.43;;;;;;;-143.21;59.03;70922.22;5110958;28;20195;-77
2023/07/20 05:44:44;;;;;;;9.73;4.38;;;;;;;-143.21;59.36;70938.09;5123759;27;20206;-78
2023/07/20 05:47:11;;;;;;;14.68;4.55;;;;;;;-143.21;59.52;70934.13;5130879;27;20206;-78
2023/07/20 05:49:40;;;;;;;11.85;4.50;;;;;;;-143.21;59.87;70934.13;5110969;27;20218;-78
2023/07/20 05:52:07;;;;;;;15.65;4.72;;;;;;;-143.21;60.27;70924.22;5110272;28;20288;-78
2023/07/20 05:54:34;;;;;;;11.98;4.78;;;;;;;-143.21;60.10;70898.44;5111220;28;20192;-77
2023/07/20 05:57:01;;;;;;;13.32;5.28;;;;;;;-143.21;59.58;70856.81;5121109;27;21035;-78
2023/07/20 05:59:29;;;;;;;16.70;5.50;;;;;;;-143.21;59.14;70829.06;5131631;27;20260;-78
2023/07/20 06:01:56;;;;;;;15.27;6.07;;;;;;;-143.21;59.41;70813.19;5131190;27;20194;-77
2023/07/20 06:04:22;;;;;;;14.73;6.70;;;;;;;-143.21;59.73;70815.19;5130918;27;20195;-78
2023/07/20 06:06:51;;;;;;;18.85;6.18;;;;;;;-143.21;59.10;70817.16;5130825;27;20227;-78
2023/07/20 06:09:19;;;;;;;14.80;6.20;;;;;;;-143.21;59.46;70819.16;5115971;27;20210;-78
2023/07/20 06:11:46;;;;;;;15.43;6.07;;;;;;;-143.21;59.53;70811.22;5110383;28;20227;-78
2023/07/20 06:14:13;;;;;;;16.35;5.60;;;;;;;-143.21;59.70;70815.19;5107760;28;20238;-78
2023/07/20 06:16:40;;;;;;;20.38;6.32;;;;;;;-143.21;60.02;70817.16;5089253;28;20859;-78
2023/07/20 06:19:07;;;;;;;20.42;6.20;;;;;;;-143.21;59.92;70827.06;5089556;28;20259;-78
2023/07/20 06:21:34;;;;;;;16.25;5.78;;;;;;;-143.21;59.39;70813.19;5093529;28;20589;-78
2023/07/20 06:24:02;;;;;;;18.60;6.70;;;;;;;-143.21;59.37;70813.19;5110400;28;20207;-78
2023/07/20 06:26:29;;;;;;;15.77;5.70;;;;;;;-143.21;60.01;70823.13;5115530;27;20234;-78
2023/07/20 06:28:56;;;;;;;16.80;6.70;;;;;;;-143.21;60.34;70815.19;5130930;27;20198;-78
2023/07/20 06:31:23;;;;;;;12.30;5.32;;;;;;;-143.21;60.23;70815.19;5130812;27;20215;-79
2023/07/20 06:33:50;;;;;;;16.92;5.53;;;;;;;-143.21;58.79;70783.47;5130708;27;20198;-78
2023/07/20 06:36:19;;;;;;;14.75;5.88;;;;;;;-143.21;57.66;70751.75;5130599;27;20649;-79
2023/07/20 06:38:46;;;;;;;15.20;5.18;;;;;;;-143.21;57.28;70727.97;5130908;27;20286;-78
2023/07/20 06:41:14;;;;;;;14.65;5.88;;;;;;;-143.21;57.14;70704.19;5124294;27;20710;-78
2023/07/20 06:43:41;;;;;;;15.23;4.90;;;;;;;-143.21;57.37;70700.22;5109706;28;20188;-77
2023/07/20 06:46:08;;;;;;;17.92;5.88;;;;;;;-143.21;57.07;70696.25;5109747;28;20210;-77
2023/07/20 06:48:34;;;;;;;15.48;5.90;;;;;;;-143.21;57.29;70698.22;5109300;28;20193;-78
2023/07/20 06:51:02;;;;;;;17.90;6.20;;;;;;;-143.21;56.64;70688.31;5109176;28;20231;-77
2023/07/20 06:53:29;;;;;;;18.15;5.97;;;;;;;-143.21;56.42;70674.44;5109438;28;20207;-77
2023/07/20 06:55:57;;;;;;;15.00;5.40;;;;;;;-143.21;56.92;70654.63;5110743;27;20192;-78
2023/07/20 06:58:26;;;;;;;15.95;5.32;;;;;;;-143.21;55.50;70638.75;5130015;27;20234;-76
2023/07/20 07:00:53;;;;;;;22.35;5.45;;;;;;;-143.21;53.79;70605.06;5129274;27;20278;-75
2023/07/20 07:03:24;;;;;;;8.95;4.93;;;;;;;-143.21;52.94;70583.25;5114048;27;20196;-75
2023/07/20 07:05:50;;;;;;;13.43;4.85;;;;;;;-143.21;52.20;70563.44;5109295;28;20184;-76
2023/07/20 07:08:17;;;;;;;18.55;4.80;;;;;;;-143.21;52.08;70565.44;5106804;28;20208;-75
2023/07/20 07:10:44;;;;;;;16.42;5.30;;;;;;;-143.21;52.57;70559.47;5108351;28;20220;-76
2023/07/20 07:13:11;;;;;;;21.80;5.63;;;;;;;-143.21;51.79;70559.47;5108293;28;20200;-75
2023/07/20 07:15:39;;;;;;;18.05;5.65;;;;;;;-143.21;51.46;70569.38;5108809;28;20200;-76
2023/07/20 07:18:06;;;;;;;13.55;5.03;;;;;;;-143.21;52.30;70571.38;5108700;28;20219;-76
2023/07/20 07:20:33;;;;;;;16.25;5.68;;;;;;;-143.21;52.01;70573.34;5109107;28;20196;-75
2023/07/20 07:23:00;;;;;;;15.43;4.63;;;;;;;-143.21;49.59;70591.19;5108355;28;20207;-75
2023/07/20 07:25:27;;;;;;;19.42;5.20;;;;;;;-143.21;52.17;70587.22;5108543;28;20192;-74
2023/07/20 07:27:55;;;;;;;15.30;4.93;;;;;;;-143.21;50.09;70575.34;5126958;27;20198;-76
2023/07/20 07:30:22;;;;;;;20.40;4.63;;;;;;;-143.21;49.15;70579.31;5129266;27;20979;-75
2023/07/20 07:32:50;;;;;;;14.50;4.60;;;;;;;-143.21;50.46;70569.38;5128651;28;20192;-78
2023/07/20 07:35:17;;;;;;;19.42;5.38;;;;;;;-143.21;50.73;70547.59;5110259;28;20216;-76
2023/07/20 07:37:46;;;;;;;13.02;5.13;;;;;;;-143.21;49.52;70551.56;5108548;28;20704;-79
2023/07/20 07:40:13;;;;;;;14.13;5.18;;;;;;;-143.21;49.86;70545.59;5113054;28;20223;-77
2023/07/20 07:42:40;;;;;;;18.08;4.72;;;;;;;-143.21;49.76;70543.63;5113480;28;20196;-77
2023/07/20 07:45:08;;;;;;;14.88;5.25;;;;;;;-143.21;50.02;70561.47;5113084;28;20276;-77
2023/07/20 07:47:35;;;;;;;9.77;5.18;;;;;;;-143.21;49.94;70581.28;5113411;28;20200;-75
2023/07/20 07:50:04;;;;;;;18.67;5.15;;;;;;;-143.21;50.55;70559.47;5112809;28;20202;-75
2023/07/20 07:52:30;;;;;;;13.40;5.05;;;;;;;-143.21;51.67;70527.75;5112971;28;20284;-77
2023/07/20 07:55:00;;;;;;;14.20;5.18;;;;;;;-143.21;49.50;70513.88;5112619;27;20191;-76
2023/07/20 07:57:26;;;;;;;13.43;4.97;;;;;;;-143.21;50.36;70502.00;5126875;27;20203;-75
2023/07/20 07:59:53;;;;;;;15.02;4.82;;;;;;;-143.21;47.95;70484.16;5133290;27;20614;-76
2023/07/20 08:02:21;;;;;;;16.08;4.70;;;;;;;-143.21;48.53;70488.13;5114298;27;20264;-75
2023/07/20 08:04:48;;;;;;;16.23;5.55;;;;;;;-143.21;49.70;70492.09;5112456;28;20640;-75
2023/07/20 08:07:16;;;;;;;15.80;4.85;;;;;;;-143.21;48.97;70511.91;5112495;28;20200;-76
2023/07/20 08:09:42;;;;;;;14.35;4.45;;;;;;;-143.21;49.23;70500.00;5110775;28;20735;-76
2023/07/20 08:12:09;;;;;;;11.93;4.43;;;;;;;-143.21;49.05;70503.97;5111920;28;20224;-75
2023/07/20 08:14:36;;;;;;;14.10;4.85;;;;;;;-143.21;49.48;70515.88;5112599;28;20211;-75
2023/07/20 08:17:04;;;;;;;21.20;5.20;;;;;;;-143.21;49.08;70507.94;5111595;28;20192;-75
2023/07/20 08:19:31;;;;;;;15.55;4.75;;;;;;;-143.21;47.70;70521.81;5111358;28;20207;-76
2023/07/20 08:21:57;;;;;;;14.27;4.47;;;;;;;-143.21;50.22;70555.50;5111188;28;20192;-76
2023/07/20 08:24:25;;;;;;;18.63;3.83;;;;;;;-143.21;49.11;70573.34;5111137;28;20192;-76
2023/07/20 08:26:52;;;;;;;11.27;4.10;;;;;;;-143.21;48.47;70585.25;5111496;28;20256;-76
2023/07/20 08:29:19;;;;;;;8.38;4.05;;;;;;;-143.21;47.97;70579.31;5111280;28;20204;-75
2023/07/20 08:31:46;;;;;;;13.23;5.20;;;;;;;-143.21;47.96;70577.31;5111498;28;20208;-75
2023/07/20 08:34:13;;;;;;;26.00;9.43;;;;;;;-143.21;47.93;70579.31;5111808;28;20206;-76
2023/07/20 08:36:39;;;;;;;20.80;7.65;;;;;;;-143.21;46.50;70579.31;5111632;28;20196;-76
2023/07/20 08:39:07;;;;;;;19.75;6.35;;;;;;;-143.21;47.42;70583.25;5111928;28;20207;-75
2023/07/20 08:41:37;;;;;;;13.98;5.47;;;;;;;-143.21;48.10;70577.31;5114164;27;20188;-76
2023/07/20 08:44:04;;;;;;;11.30;4.10;;;;;;;-143.21;47.48;70565.44;5112128;27;20204;-75
2023/07/20 08:46:32;;;;;;;17.80;3.90;;;;;;;-143.21;48.39;70567.41;5127472;27;20211;-75
2023/07/20 08:49:00;;;;;;;13.00;3.75;;;;;;;-143.21;47.36;70559.47;5124942;27;20635;-76
2023/07/20 08:51:27;;;;;;;15.45;3.90;;;;;;;-143.21;46.80;70541.63;5113316;27;20242;-77
2023/07/20 08:53:54;;;;;;;10.35;4.00;;;;;;;-143.21;44.69;70545.59;5111460;27;20903;-76
2023/07/20 08:56:22;;;;;;;15.95;5.38;;;;;;;-143.21;44.88;70533.72;5109531;27;20919;-77
2023/07/20 08:58:51;;;;;;;15.50;4.82;;;;;;;-143.21;45.38;70523.81;5109960;27;20280;-78
2023/07/20 09:01:19;;;;;;;10.40;4.20;;;;;;;-143.21;44.49;70523.81;5108279;27;20200;-76
2023/07/20 09:03:47;;;;;;;13.10;3.78;;;;;;;-143.21;45.74;70513.88;5127837;27;20196;-76
2023/07/20 09:06:13;;;;;;;15.90;3.90;;;;;;;-143.21;45.61;70498.03;5113509;27;20192;-79
2023/07/20 09:08:40;;;;;;;16.67;3.42;;;;;;;-143.21;45.61;70486.16;5112426;27;20199;-76
2023/07/20 09:11:07;;;;;;;9.15;3.80;;;;;;;-143.21;45.67;70492.09;5113054;27;20663;-76
2023/07/20 09:13:34;;;;;;;13.77;3.42;;;;;;;-143.21;44.06;70484.16;5119212;27;20228;-76
2023/07/20 09:16:04;;;;;;;13.60;3.42;;;;;;;-143.21;43.94;70478.22;5119576;27;20208;-76
2023/07/20 09:18:34;;;;;;;15.32;3.83;;;;;;;-143.21;43.14;70478.22;5116105;27;20208;-76
2023/07/20 09:21:03;;;;;;;12.45;3.80;;;;;;;-143.21;44.43;70466.31;5110850;27;20211;-75
2023/07/20 09:23:34;;;;;;;11.45;3.75;;;;;;;-143.21;43.48;70458.41;5109272;27;20192;-75
2023/07/20 09:26:01;;;;;;;8.90;3.22;;;;;;;-143.21;43.34;70446.50;5115100;27;20588;-76
2023/07/20 09:28:28;;;;;;;11.88;3.53;;;;;;;-143.21;43.33;70444.53;5112011;27;20265;-75
2023/07/20 09:30:56;;;;;;;13.40;3.72;;;;;;;-143.21;43.00;70434.59;5115810;27;20632;-76
2023/07/20 09:33:25;;;;;;;8.63;3.40;;;;;;;-143.21;43.83;70418.75;5115377;27;20200;-76
2023/07/20 09:35:52;;;;;;;21.13;3.85;;;;;;;-143.21;41.83;70412.81;5112437;27;20265;-75
2023/07/20 09:38:19;;;;;;;13.60;3.35;;;;;;;-143.21;41.86;70410.81;5116215;27;20560;-77
2023/07/20 09:40:46;;;;;;;11.38;3.50;;;;;;;-143.21;42.09;70416.78;5117707;27;20215;-81
2023/07/20 09:43:12;;;;;;;12.77;3.40;;;;;;;-143.21;41.78;70400.91;5115701;27;20656;-78
2023/07/20 09:45:43;;;;;;;6.85;3.30;;;;;;;-143.21;42.02;70387.03;5118366;27;20838;-80
2023/07/20 09:48:11;;;;;;;13.93;3.33;;;;;;;-143.21;41.79;70365.25;5109785;27;20196;-79
2023/07/20 09:50:43;;;;;;;8.38;3.40;;;;;;;-143.21;40.79;70341.44;5114050;27;20247;-79
2023/07/20 09:53:13;;;;;;;9.43;2.90;;;;;;;-143.21;40.80;70311.72;5114267;27;20234;-80
2023/07/20 09:55:41;;;;;;;8.63;3.30;;;;;;;-143.21;39.30;70287.94;5111609;28;20199;-79
2023/07/20 09:58:09;;;;;;;11.13;3.70;;;;;;;-143.21;39.93;70289.91;5112052;27;20338;-82
2023/07/20 10:00:38;;;;;;;13.73;3.10;;;;;;;-143.21;39.94;70303.78;5109343;28;20307;-79
2023/07/20 10:03:06;;;;;;;9.73;3.10;;;;;;;-143.21;40.08;70309.75;5109945;27;20199;-76
2023/07/20 10:05:34;;;;;;;18.08;3.10;;;;;;;-143.21;40.15;70307.75;5109947;27;20208;-76
2023/07/20 10:08:04;;;;;;;10.38;3.15;;;;;;;-143.21;40.92;70315.69;5113845;27;20294;-76
2023/07/20 10:10:33;;;;;;;12.75;3.15;;;;;;;-143.21;41.35;70307.75;5111819;27;20208;-76
2023/07/20 10:13:02;;;;;;;12.82;3.25;;;;;;;-143.21;40.81;70293.88;5118351;27;20720;-76
2023/07/20 10:15:34;;;;;;;9.88;3.42;;;;;;;-143.21;40.25;70266.13;5111554;27;20235;-77
2023/07/20 10:18:04;;;;;;;7.57;2.83;;;;;;;-143.21;39.92;70240.38;5121925;27;20546;-76
2023/07/20 10:20:34;;;;;;;10.50;2.92;;;;;;;-143.21;38.94;70248.28;5119830;27;20276;-78
2023/07/20 10:23:05;;;;;;;6.40;2.72;;;;;;;-143.21;39.10;70260.19;5116399;27;20215;-77
2023/07/20 10:25:33;;;;;;;11.10;3.30;;;;;;;-143.21;39.18;70270.09;5117891;27;20286;-77
2023/07/20 10:28:00;;;;;;;10.38;3.63;;;;;;;-143.21;38.96;70268.13;5115150;27;20203;-77
2023/07/20 10:30:27;;;;;;;10.05;3.28;;;;;;;-143.21;39.35;70244.34;5116412;27;20276;-76
2023/07/20 10:32:54;;;;;;;7.85;2.85;;;;;;;-143.21;38.94;70226.50;5112756;27;20224;-77
2023/07/20 10:35:21;;;;;;;9.75;2.97;;;;;;;-143.21;38.97;70250.28;5109274;27;20230;-78
2023/07/20 10:37:50;;;;;;;9.15;3.03;;;;;;;-143.21;38.95;70250.28;5110350;27;20295;-78
2023/07/20 10:40:34;;;;;;;7.75;3.72;;;;;;;-143.21;39.15;70272.09;5109561;27;20239;-78
2023/07/20 10:43:03;;;;;;;10.75;3.08;;;;;;;-143.21;37.84;70254.25;5113929;27;20222;-77
2023/07/20 10:45:49;;;;;;;7.93;3.03;;;;;;;-143.21;38.69;70260.19;5122330;27;20204;-77
2023/07/20 10:48:19;;;;;;;8.77;3.05;;;;;;;-143.21;39.13;70234.44;5117387;27;20214;-77
2023/07/20 10:50:45;;;;;;;8.00;2.90;;;;;;;-143.21;38.51;70254.25;5110092;27;20318;-78
2023/07/20 10:53:17;;;;;;;5.93;2.65;;;;;;;-143.21;39.84;70285.97;5114030;27;20339;-77
2023/07/20 10:55:46;;;;;;;12.75;3.63;;;;;;;-143.21;39.85;70297.84;5113517;27;20223;-77
2023/07/20 10:58:15;;;;;;;10.43;3.38;;;;;;;-143.21;40.41;70274.06;5109785;28;20203;-78
2023/07/20 11:01:02;;;;;;;9.20;3.35;;;;;;;-143.21;40.40;70224.50;5113582;27;20227;-78
2023/07/20 11:03:34;;;;;;;8.65;3.10;;;;;;;-143.21;39.81;70184.88;5111916;27;20195;-78
2023/07/20 11:06:21;;;;;;;8.60;3.17;;;;;;;-143.21;40.23;70145.25;5110214;28;20200;-78
2023/07/20 11:08:48;;;;;;;8.73;3.28;;;;;;;-143.21;39.19;70093.72;5109639;27;20203;-78
2023/07/20 11:11:27;;;;;;;9.02;3.10;;;;;;;-143.21;38.78;70056.06;5109117;28;20655;-78
2023/07/20 11:13:58;;;;;;;11.18;3.42;;;;;;;-143.21;38.54;70040.19;5106569;27;20568;-78
2023/07/20 11:16:36;;;;;;;7.80;3.35;;;;;;;-143.21;38.29;70022.38;5109398;27;20192;-77